createdAt,value
2023-04-30T00:02:32.971Z,23.30
2023-04-30T00:07:38.422Z,23.40
2023-04-30T00:12:43.725Z,23.30
2023-04-30T00:17:49.244Z,23.20
2023-04-30T00:22:54.714Z,23.20
2023-04-30T00:28:00.312Z,23.30
2023-04-30T00:33:14.535Z,23.30
2023-04-30T00:38:20.125Z,23.30
2023-04-30T00:43:25.904Z,23.40
2023-04-30T00:48:31.478Z,23.60
2023-04-30T00:53:38.466Z,23.80
2023-04-30T00:58:44.706Z,23.90
2023-04-30T01:03:50.076Z,23.90
2023-04-30T01:08:55.864Z,23.80
2023-04-30T01:14:10.802Z,23.90
2023-04-30T01:19:43.753Z,23.90
2023-04-30T01:25:00.794Z,24.00
2023-04-30T01:30:08.649Z,24.10
2023-04-30T01:35:14.123Z,24.20
2023-04-30T01:40:34.835Z,24.30
2023-04-30T01:45:43.543Z,24.30
2023-04-30T01:51:14.750Z,24.30
2023-04-30T01:56:34.473Z,24.20
2023-04-30T02:01:40.366Z,24.30
2023-04-30T02:06:45.859Z,24.40
2023-04-30T02:11:52.857Z,24.10
2023-04-30T02:16:58.615Z,23.80
2023-04-30T02:22:03.834Z,23.60
2023-04-30T02:27:11.810Z,23.50
2023-04-30T02:32:26.470Z,23.50
2023-04-30T02:37:32.294Z,23.30
2023-04-30T02:42:38.019Z,23.10
2023-04-30T02:47:43.696Z,23.00
2023-04-30T02:52:52.270Z,22.90
2023-04-30T02:57:57.875Z,22.80
2023-04-30T03:03:03.533Z,22.90
2023-04-30T03:08:09.238Z,23.50
2023-04-30T03:13:14.508Z,24.20
2023-04-30T03:18:20.461Z,24.70
2023-04-30T03:23:29.394Z,25.10
2023-04-30T03:28:34.921Z,25.10
2023-04-30T03:33:40.736Z,25.10
2023-04-30T03:38:46.245Z,25.40
2023-04-30T03:43:54.411Z,25.60
2023-04-30T03:48:59.588Z,25.90
2023-04-30T03:54:05.239Z,26.10
2023-04-30T03:59:11.118Z,26.00
2023-04-30T04:04:17.457Z,25.80
2023-04-30T04:09:22.997Z,25.60
2023-04-30T04:14:28.442Z,25.70
2023-04-30T04:19:34.289Z,25.60
2023-04-30T04:24:39.891Z,25.40
2023-04-30T04:29:46.065Z,25.30
2023-04-30T04:34:52.340Z,25.20
2023-04-30T04:39:59.638Z,25.10
2023-04-30T04:45:05.484Z,25.00
2023-04-30T04:50:20.958Z,24.80
2023-04-30T04:55:26.884Z,24.30
2023-04-30T05:00:32.603Z,24.00
2023-04-30T05:05:38.070Z,23.40
2023-04-30T05:10:43.526Z,22.80
2023-04-30T05:15:52.082Z,22.50
2023-04-30T05:21:00.665Z,22.40
2023-04-30T05:26:06.926Z,22.50
2023-04-30T05:31:12.534Z,22.70
2023-04-30T05:36:18.350Z,23.00
2023-04-30T05:41:24.256Z,23.60
2023-04-30T05:46:29.501Z,24.20
2023-04-30T05:51:35.308Z,25.00
2023-04-30T05:56:43.416Z,25.60
2023-04-30T06:01:48.649Z,26.20
2023-04-30T06:06:54.346Z,27.00
2023-04-30T06:12:00.120Z,27.50
2023-04-30T06:17:05.630Z,28.00
2023-04-30T06:22:11.056Z,28.80
2023-04-30T06:27:17.140Z,29.50
2023-04-30T06:32:23.022Z,30.00
2023-04-30T06:37:28.214Z,32.10
2023-04-30T06:42:37.383Z,31.50
2023-04-30T06:47:44.220Z,29.60
2023-04-30T06:52:50.101Z,28.80
2023-04-30T06:57:55.896Z,28.70
2023-04-30T07:03:05.221Z,28.10
2023-04-30T07:08:10.776Z,27.70
2023-04-30T07:13:24.959Z,27.60
2023-04-30T07:30:15.437Z,30.60
2023-04-30T07:35:21.186Z,32.10
2023-04-30T07:40:35.479Z,34.30
2023-04-30T07:45:42.302Z,36.70
2023-04-30T07:50:50.762Z,37.40
2023-04-30T07:55:58.242Z,37.40
2023-04-30T08:01:04.431Z,36.20
2023-04-30T08:06:10.416Z,33.90
2023-04-30T08:11:16.823Z,31.60
2023-04-30T08:16:22.274Z,30.90
2023-04-30T08:21:29.564Z,30.80
2023-04-30T08:26:34.998Z,30.70
2023-04-30T08:31:40.546Z,30.50
2023-04-30T08:36:45.979Z,29.30
2023-04-30T08:41:59.281Z,29.10
2023-04-30T08:47:06.321Z,29.20
2023-04-30T08:52:12.560Z,28.90
2023-04-30T08:57:17.979Z,28.40
2023-04-30T09:02:23.661Z,27.90
2023-04-30T09:07:30.533Z,27.50
2023-04-30T09:12:36.749Z,27.20
2023-04-30T09:17:46.554Z,27.10
2023-04-30T09:23:09.765Z,27.10
2023-04-30T09:28:16.218Z,27.20
2023-04-30T09:33:22.052Z,27.30
2023-04-30T09:38:28.397Z,27.20
2023-04-30T09:43:34.919Z,27.00
2023-04-30T09:48:48.457Z,26.80
2023-04-30T09:54:14.968Z,26.70
2023-04-30T09:59:24.468Z,26.50
2023-04-30T10:04:38.744Z,26.40
2023-04-30T10:09:53.658Z,26.20
2023-04-30T10:15:23.202Z,26.00
2023-04-30T10:20:31.892Z,25.80
2023-04-30T10:25:42.632Z,25.70
2023-04-30T10:30:49.089Z,25.60
2023-04-30T10:36:40.641Z,25.60
2023-04-30T10:41:50.987Z,25.50
2023-04-30T10:47:04.095Z,25.40
2023-04-30T10:52:09.485Z,25.30
2023-04-30T10:57:16.814Z,25.20
2023-04-30T11:02:22.962Z,25.10
2023-04-30T11:07:30.424Z,25.10
2023-04-30T11:12:35.666Z,25.00
2023-04-30T11:17:51.548Z,24.90
2023-04-30T11:23:24.926Z,24.80
2023-04-30T11:28:39.364Z,24.80
2023-04-30T11:33:44.975Z,24.70
2023-04-30T11:38:50.192Z,24.70
2023-04-30T11:43:58.014Z,24.70
2023-04-30T11:49:04.045Z,24.80
2023-04-30T11:54:17.379Z,24.70
2023-04-30T11:59:22.647Z,24.70
2023-04-30T12:04:31.331Z,24.70
2023-04-30T12:10:01.027Z,24.70
2023-04-30T12:15:18.448Z,24.70
2023-04-30T12:20:25.431Z,24.60
2023-04-30T12:25:31.506Z,24.60
2023-04-30T12:30:37.400Z,24.60
2023-04-30T12:35:44.723Z,24.70
2023-04-30T12:40:50.703Z,24.70
2023-04-30T12:45:59.312Z,24.60
2023-04-30T12:51:08.086Z,24.50
2023-04-30T12:56:18.256Z,24.40
2023-04-30T13:01:27.779Z,24.30
2023-04-30T13:06:34.716Z,24.40
2023-04-30T13:11:42.710Z,24.40
2023-04-30T13:16:49.196Z,24.40
2023-04-30T13:21:55.067Z,24.40
2023-04-30T13:27:01.240Z,24.30
2023-04-30T13:32:06.340Z,24.30
2023-04-30T13:37:11.818Z,24.20
2023-04-30T13:42:17.586Z,24.20
2023-04-30T13:47:23.239Z,24.20
2023-04-30T13:52:29.175Z,24.10
2023-04-30T13:57:34.846Z,24.10
2023-04-30T14:02:41.382Z,24.20
2023-04-30T14:07:46.884Z,24.20
2023-04-30T14:12:55.483Z,24.20
2023-04-30T14:18:01.872Z,24.20
2023-04-30T14:23:07.840Z,24.30
2023-04-30T14:28:13.350Z,24.20
2023-04-30T14:33:18.581Z,24.20
2023-04-30T14:44:52.000Z,24.10
2023-04-30T14:49:58.500Z,24.10
2023-04-30T14:55:04.681Z,24.10
2023-04-30T15:06:11.132Z,24.00
2023-04-30T15:11:23.173Z,24.10
2023-04-30T15:30:50.601Z,24.00
2023-04-30T15:49:10.123Z,24.00
2023-04-30T15:54:16.286Z,24.00
2023-04-30T15:59:31.372Z,24.00
2023-04-30T16:05:08.643Z,23.90
2023-04-30T16:10:23.075Z,24.10
2023-04-30T16:16:07.289Z,24.00
2023-04-30T16:22:16.071Z,23.70
2023-04-30T16:28:01.909Z,23.60
2023-04-30T16:39:26.766Z,23.70
2023-04-30T16:45:00.153Z,23.80
2023-04-30T16:57:14.231Z,23.70
2023-04-30T17:02:23.250Z,23.70
2023-04-30T17:07:30.433Z,23.80
2023-04-30T17:24:29.781Z,23.70
2023-04-30T17:41:39.886Z,23.60
2023-04-30T17:46:58.226Z,23.60
2023-04-30T18:04:22.353Z,23.50
2023-04-30T18:15:35.572Z,23.50
2023-04-30T18:20:40.453Z,23.60
2023-04-30T18:25:45.498Z,23.60
2023-04-30T18:30:51.316Z,23.60
2023-04-30T18:36:02.428Z,23.60
2023-04-30T18:41:09.562Z,23.60
2023-04-30T18:46:15.488Z,23.60
2023-04-30T18:51:20.385Z,23.60
2023-04-30T18:56:26.165Z,23.60
2023-04-30T19:01:31.276Z,23.60
2023-04-30T19:06:36.885Z,23.60
2023-04-30T19:11:42.665Z,23.70
2023-04-30T19:16:48.944Z,23.70
2023-04-30T19:21:55.095Z,23.40
2023-04-30T19:26:59.835Z,23.30
2023-04-30T19:32:05.962Z,23.20
2023-04-30T19:37:11.338Z,23.10
2023-04-30T19:42:17.968Z,23.20
2023-04-30T19:47:25.493Z,23.10
2023-04-30T19:52:30.800Z,23.10
2023-04-30T19:57:37.541Z,23.00
2023-04-30T20:02:42.886Z,23.00
2023-04-30T20:07:48.123Z,23.00
2023-04-30T20:12:57.159Z,23.10
2023-04-30T20:18:03.022Z,23.10
2023-04-30T20:23:18.895Z,23.00
2023-04-30T20:28:24.062Z,22.90
2023-04-30T20:33:33.430Z,23.00
2023-04-30T20:38:39.077Z,23.10
2023-04-30T20:43:44.792Z,23.20
2023-04-30T20:48:50.883Z,23.20
2023-04-30T20:53:56.078Z,23.30
2023-04-30T20:59:01.791Z,23.30
2023-04-30T21:04:07.111Z,23.30
2023-04-30T21:09:13.981Z,23.30
2023-04-30T21:14:19.203Z,23.30
2023-04-30T21:19:25.234Z,23.30
2023-04-30T21:24:33.192Z,23.30
2023-04-30T21:29:39.013Z,23.30
2023-04-30T21:34:45.558Z,23.30
2023-04-30T21:39:50.860Z,23.10
2023-04-30T21:45:06.531Z,23.10
2023-04-30T21:50:12.696Z,22.90
2023-04-30T21:55:18.165Z,22.80
2023-04-30T22:00:23.825Z,22.80
2023-04-30T22:05:29.371Z,22.80
2023-04-30T22:10:34.545Z,22.80
2023-04-30T22:15:47.752Z,22.70
2023-04-30T22:20:54.626Z,22.70
2023-04-30T22:25:59.353Z,22.70
2023-04-30T22:31:05.445Z,22.70
2023-04-30T22:36:11.824Z,22.70
2023-04-30T22:41:17.473Z,22.70
2023-04-30T22:46:31.452Z,22.80
2023-04-30T22:51:38.723Z,22.80
2023-04-30T22:56:43.906Z,22.90
2023-04-30T23:01:51.948Z,23.00
2023-04-30T23:06:58.101Z,23.10
2023-04-30T23:12:04.171Z,23.30
2023-04-30T23:17:09.488Z,23.50
2023-04-30T23:22:15.549Z,23.40
2023-04-30T23:27:20.938Z,23.30
2023-04-30T23:32:26.539Z,23.30
2023-04-30T23:37:32.211Z,23.40
2023-04-30T23:42:37.937Z,23.50
2023-04-30T23:47:43.293Z,23.80
2023-04-30T23:52:49.284Z,23.90
2023-04-30T23:57:54.050Z,24.10
